Time;durP1;ratioP1;P1;durP2;ratioP2;P2;SDS_P1;SDS_P2;PMS_P1;PMS_P2;Temp;Humidity;BMP_temperature;BMP_pressure;BME280_temperature;BME280_humidity;BME280_pressure;Samples;Min_cycle;Max_cycle;Signal;HPM_P1;HPM_P2
2022/11/14 00:00:07;;;;;;;15.83;6.33;;;4.70;97.30;;;;;;5050817;28;20459;-86
2022/11/14 00:02:32;;;;;;;9.20;5.87;;;4.70;97.30;;;;;;5050783;28;20402;-86
2022/11/14 00:04:58;;;;;;;8.33;4.93;;;4.70;97.30;;;;;;5051466;28;20520;-86
2022/11/14 00:07:23;;;;;;;11.37;7.70;;;4.70;97.30;;;;;;5050657;28;20171;-86
2022/11/14 00:09:49;;;;;;;12.13;5.80;;;4.70;97.30;;;;;;5050543;28;20172;-86
2022/11/14 00:12:14;;;;;;;4.30;3.50;;;4.70;97.30;;;;;;5049332;28;20172;-86
2022/11/14 00:14:40;;;;;;;16.83;9.17;;;4.70;97.30;;;;;;5051493;28;20210;-86
2022/11/14 00:17:05;;;;;;;13.60;7.00;;;4.60;97.30;;;;;;5065220;28;20175;-86
2022/11/14 00:19:31;;;;;;;8.40;6.87;;;4.60;97.30;;;;;;5070330;28;20190;-86
2022/11/14 00:21:59;;;;;;;13.57;6.30;;;4.60;97.30;;;;;;5070321;28;20661;-86
2022/11/14 00:24:24;;;;;;;7.20;6.20;;;4.50;97.30;;;;;;5070299;28;20195;-86
2022/11/14 00:26:50;;;;;;;9.30;6.53;;;4.50;97.30;;;;;;5070522;28;20414;-87
2022/11/14 00:29:15;;;;;;;5.87;5.40;;;4.50;97.30;;;;;;5071929;28;20584;-86
2022/11/14 00:31:41;;;;;;;9.83;9.20;;;4.50;97.30;;;;;;5070340;28;20171;-86
2022/11/14 00:34:07;;;;;;;15.33;8.97;;;4.50;97.30;;;;;;5071297;28;20456;-86
2022/11/14 00:36:33;;;;;;;21.30;7.80;;;4.50;97.30;;;;;;5070413;28;20610;-86
2022/11/14 00:38:58;;;;;;;10.90;6.93;;;4.50;97.30;;;;;;5070923;28;20783;-86
2022/11/14 00:41:24;;;;;;;18.27;7.73;;;4.50;97.30;;;;;;5070212;28;20171;-86
2022/11/14 00:43:50;;;;;;;7.90;6.53;;;4.60;97.30;;;;;;5070623;28;20183;-87
2022/11/14 00:46:16;;;;;;;8.90;6.17;;;4.60;97.30;;;;;;5070502;28;20428;-86
2022/11/14 00:48:41;;;;;;;18.33;7.83;;;4.60;97.30;;;;;;5070454;28;20174;-86
2022/11/14 00:51:07;;;;;;;8.40;4.10;;;4.60;97.30;;;;;;5069862;28;20419;-86
2022/11/14 00:53:32;;;;;;;9.97;4.93;;;4.60;97.30;;;;;;5070539;28;20576;-87
2022/11/14 00:55:58;;;;;;;8.60;5.43;;;4.60;97.30;;;;;;5071556;28;20187;-86
2022/11/14 00:58:23;;;;;;;10.20;5.93;;;4.60;97.30;;;;;;5071695;28;20167;-86
2022/11/14 01:00:50;;;;;;;9.20;8.70;;;4.60;97.30;;;;;;5070304;28;20564;-87
2022/11/14 01:03:16;;;;;;;8.87;4.87;;;4.60;97.30;;;;;;5069870;28;20311;-88
2022/11/14 01:05:48;;;;;;;6.63;4.70;;;4.50;97.30;;;;;;5069758;28;20465;-86
2022/11/14 01:08:16;;;;;;;7.20;5.07;;;4.50;97.30;;;;;;5070310;28;20171;-86
2022/11/14 01:10:44;;;;;;;7.23;6.20;;;4.50;97.30;;;;;;5070115;28;20844;-86
2022/11/14 01:13:11;;;;;;;12.77;7.77;;;4.40;97.30;;;;;;5070089;28;20460;-86
2022/11/14 01:15:41;;;;;;;11.97;6.33;;;4.40;97.30;;;;;;5067361;28;20433;-86
2022/11/14 01:18:09;;;;;;;5.57;4.73;;;4.30;97.30;;;;;;5049734;28;20415;-86
2022/11/14 01:20:38;;;;;;;12.40;6.87;;;4.30;97.30;;;;;;5050239;28;20668;-86
2022/11/14 01:23:04;;;;;;;5.43;4.50;;;4.30;97.30;;;;;;5051076;28;20421;-86
2022/11/14 01:25:32;;;;;;;11.63;5.27;;;4.30;97.30;;;;;;5054892;28;20433;-87
2022/11/14 01:27:57;;;;;;;13.47;6.30;;;4.20;97.30;;;;;;5053612;28;20210;-87
2022/11/14 01:30:23;;;;;;;4.23;3.97;;;4.20;97.30;;;;;;5053385;28;20917;-86
2022/11/14 01:32:48;;;;;;;9.70;6.00;;;4.20;97.30;;;;;;5053271;28;20211;-86
2022/11/14 01:35:14;;;;;;;13.37;5.60;;;4.10;97.30;;;;;;5053530;28;20199;-86
2022/11/14 01:37:40;;;;;;;8.13;4.50;;;4.10;97.30;;;;;;5053811;28;20179;-86
2022/11/14 01:40:06;;;;;;;10.93;6.53;;;4.00;97.30;;;;;;5053254;28;20229;-86
2022/11/14 01:42:31;;;;;;;16.63;6.60;;;4.00;97.30;;;;;;5053588;28;20270;-87
2022/11/14 01:44:57;;;;;;;8.23;3.70;;;4.00;97.30;;;;;;5053421;28;20466;-86
2022/11/14 01:47:27;;;;;;;6.80;5.63;;;3.90;97.30;;;;;;5053596;28;20183;-86
2022/11/14 01:49:57;;;;;;;11.20;6.37;;;3.80;97.30;;;;;;5053970;28;20180;-87
2022/11/14 01:52:26;;;;;;;4.57;4.30;;;3.80;97.30;;;;;;5053102;28;20418;-87
2022/11/14 01:54:56;;;;;;;21.83;8.30;;;3.70;97.30;;;;;;5053413;28;20442;-87
2022/11/14 01:57:27;;;;;;;7.17;6.60;;;3.70;97.30;;;;;;5053172;28;20407;-87
2022/11/14 01:59:56;;;;;;;10.57;5.27;;;3.60;97.30;;;;;;5054849;28;20405;-87
2022/11/14 02:02:24;;;;;;;9.93;6.80;;;3.60;97.30;;;;;;5053537;28;20483;-87
2022/11/14 02:04:56;;;;;;;7.00;5.60;;;3.50;97.30;;;;;;5052719;28;20557;-87
2022/11/14 02:07:24;;;;;;;9.77;6.57;;;3.50;97.30;;;;;;5053180;28;20471;-87
2022/11/14 02:09:50;;;;;;;5.30;5.00;;;3.50;97.30;;;;;;5053092;28;20414;-87
2022/11/14 02:12:18;;;;;;;5.67;5.17;;;3.50;97.30;;;;;;5052739;28;20416;-87
2022/11/14 02:14:47;;;;;;;3.77;3.57;;;3.50;97.30;;;;;;5052569;28;20553;-87
2022/11/14 02:17:15;;;;;;;4.83;3.93;;;3.40;97.30;;;;;;5068729;28;20421;-87
2022/11/14 02:19:51;;;;;;;8.03;5.73;;;3.40;97.30;;;;;;5073218;28;20409;-87
2022/11/14 02:22:16;;;;;;;11.30;4.10;;;3.40;97.30;;;;;;5072848;28;20409;-87
2022/11/14 02:24:43;;;;;;;6.03;4.73;;;3.40;97.30;;;;;;5072852;28;20451;-87
2022/11/14 02:27:09;;;;;;;3.23;3.07;;;3.30;97.30;;;;;;5074367;28;20179;-87
2022/11/14 02:29:35;;;;;;;9.27;5.77;;;3.30;97.30;;;;;;5074545;28;20410;-87
2022/11/14 02:32:02;;;;;;;5.93;5.30;;;3.30;97.30;;;;;;5072717;28;20785;-87
2022/11/14 02:34:30;;;;;;;6.63;4.53;;;3.30;97.30;;;;;;5072182;28;20215;-87
2022/11/14 02:36:55;;;;;;;22.90;5.87;;;3.40;97.30;;;;;;5072503;28;21043;-87
2022/11/14 02:39:21;;;;;;;7.50;5.70;;;3.40;97.30;;;;;;5072542;28;20426;-87
2022/11/14 02:41:48;;;;;;;9.50;7.10;;;3.40;97.30;;;;;;5073843;28;20175;-87
2022/11/14 02:44:13;;;;;;;17.53;7.20;;;3.40;97.30;;;;;;5072100;28;20195;-87
2022/11/14 02:46:39;;;;;;;4.53;4.20;;;3.40;97.30;;;;;;5074086;28;20504;-87
2022/11/14 02:49:04;;;;;;;6.80;4.80;;;3.30;97.30;;;;;;5072366;28;20179;-87
2022/11/14 02:51:30;;;;;;;4.43;4.13;;;3.40;97.30;;;;;;5072562;28;20174;-87
2022/11/14 02:53:55;;;;;;;7.57;7.13;;;3.40;97.30;;;;;;5073282;28;20278;-87
2022/11/14 02:56:21;;;;;;;17.17;7.17;;;3.40;97.30;;;;;;5072514;28;20258;-87
2022/11/14 02:58:49;;;;;;;4.30;4.03;;;3.40;97.30;;;;;;5072234;28;20359;-88
2022/11/14 03:01:14;;;;;;;13.30;8.33;;;3.40;97.30;;;;;;5073475;28;20174;-87
2022/11/14 03:03:40;;;;;;;10.73;7.03;;;3.40;97.30;;;;;;5072208;28;20413;-90
2022/11/14 03:06:05;;;;;;;4.83;3.47;;;3.40;97.30;;;;;;5071980;28;20591;-87
2022/11/14 03:08:31;;;;;;;8.00;4.00;;;3.40;97.30;;;;;;5072576;28;20410;-89
2022/11/14 03:11:03;;;;;;;8.73;6.57;;;3.40;97.30;;;;;;5072330;28;20587;-87
2022/11/14 03:13:29;;;;;;;7.70;4.80;;;3.40;97.30;;;;;;5072237;28;20203;-89
2022/11/14 03:15:55;;;;;;;5.90;4.00;;;3.40;97.30;;;;;;5068280;28;20556;-88
2022/11/14 03:18:21;;;;;;;8.57;5.27;;;3.40;97.30;;;;;;5054043;28;20172;-88
2022/11/14 03:20:46;;;;;;;12.30;6.13;;;3.40;97.30;;;;;;5052274;28;20411;-87
2022/11/14 03:23:12;;;;;;;8.23;5.50;;;3.40;97.30;;;;;;5051917;28;20187;-88
2022/11/14 03:25:37;;;;;;;12.40;6.67;;;3.50;97.30;;;;;;5051984;28;20690;-89
2022/11/14 03:28:03;;;;;;;9.07;7.90;;;3.50;97.30;;;;;;5051610;28;20665;-89
2022/11/14 03:30:30;;;;;;;8.13;7.73;;;3.50;97.30;;;;;;5052009;28;20198;-89
2022/11/14 03:32:56;;;;;;;5.90;5.63;;;3.60;97.30;;;;;;5051541;28;20204;-90
2022/11/14 03:35:22;;;;;;;16.23;4.97;;;3.60;97.30;;;;;;5051685;28;20434;-90
2022/11/14 03:37:47;;;;;;;4.03;3.83;;;3.70;97.30;;;;;;5051489;28;20414;-88
2022/11/14 03:40:13;;;;;;;5.47;4.93;;;3.70;97.30;;;;;;5052766;28;20421;-89
2022/11/14 03:42:39;;;;;;;9.87;5.23;;;3.70;97.30;;;;;;5051720;28;20183;-88
2022/11/14 03:45:04;;;;;;;10.57;6.40;;;3.80;97.30;;;;;;5052757;28;20184;-89
2022/11/14 03:47:30;;;;;;;6.87;4.40;;;3.80;97.30;;;;;;5052159;28;20251;-89
2022/11/14 03:49:55;;;;;;;10.00;5.47;;;3.80;97.30;;;;;;5051297;28;20422;-89
2022/11/14 03:52:21;;;;;;;9.00;3.00;;;3.80;97.30;;;;;;5052003;28;20176;-90
2022/11/14 03:54:49;;;;;;;8.03;6.40;;;3.80;97.30;;;;;;5052146;28;20215;-89
2022/11/14 03:57:14;;;;;;;11.03;4.97;;;3.80;97.30;;;;;;5051297;28;20183;-89
2022/11/14 03:59:40;;;;;;;8.13;5.23;;;3.80;97.30;;;;;;5051502;28;20414;-89
2022/11/14 04:02:05;;;;;;;9.80;6.17;;;3.70;97.30;;;;;;5051341;28;20179;-89
2022/11/14 04:06:59;;;;;;;16.47;3.87;;;3.60;97.30;;;;;;5068754;28;20223;-85
2022/11/14 04:09:24;;;;;;;4.07;3.87;;;3.60;97.30;;;;;;5053461;28;20413;-85
2022/11/14 04:11:50;;;;;;;3.77;3.63;;;3.60;97.30;;;;;;5053291;28;20171;-86
2022/11/14 04:14:15;;;;;;;15.73;5.80;;;3.60;97.30;;;;;;5052842;28;20619;-85
2022/11/14 04:16:41;;;;;;;8.50;6.00;;;3.50;97.30;;;;;;5052604;28;20203;-85
2022/11/14 04:19:06;;;;;;;10.53;5.47;;;3.50;97.30;;;;;;5052827;28;20175;-85
2022/11/14 04:21:32;;;;;;;5.13;3.93;;;3.50;97.30;;;;;;5053128;28;20550;-85
2022/11/14 04:23:57;;;;;;;7.23;6.83;;;3.50;97.30;;;;;;5052901;28;20645;-85
2022/11/14 04:26:23;;;;;;;13.20;6.57;;;3.50;97.30;;;;;;5052884;28;20240;-85
2022/11/14 04:28:48;;;;;;;7.00;6.30;;;3.50;97.30;;;;;;5070697;28;20228;-85
2022/11/14 04:31:14;;;;;;;12.60;6.40;;;3.50;97.30;;;;;;5053037;28;20179;-85
2022/11/14 04:33:39;;;;;;;6.23;3.30;;;3.50;97.30;;;;;;5070760;28;20195;-85
2022/11/14 04:36:05;;;;;;;9.13;4.90;;;3.50;97.30;;;;;;5052721;28;20593;-85
2022/11/14 04:38:31;;;;;;;5.23;4.97;;;3.50;97.30;;;;;;5052712;28;20175;-85
2022/11/14 04:40:56;;;;;;;8.10;4.87;;;3.50;97.30;;;;;;5053106;28;20733;-85
2022/11/14 04:43:22;;;;;;;6.20;4.30;;;3.50;97.30;;;;;;5053083;28;20637;-85
2022/11/14 04:45:47;;;;;;;7.60;4.07;;;3.50;97.30;;;;;;5052276;28;20233;-85
2022/11/14 04:48:13;;;;;;;7.50;3.77;;;3.50;97.30;;;;;;5053126;28;20258;-85
2022/11/14 04:50:38;;;;;;;7.50;5.47;;;3.50;97.30;;;;;;5053201;28;20270;-86
2022/11/14 04:53:04;;;;;;;7.00;6.50;;;3.50;97.30;;;;;;5053779;28;20377;-85
2022/11/14 04:55:30;;;;;;;6.40;6.00;;;3.50;97.30;;;;;;5053114;28;20191;-85
2022/11/14 04:57:57;;;;;;;9.43;4.77;;;3.40;97.30;;;;;;5054099;28;20420;-85
2022/11/14 05:00:23;;;;;;;21.73;6.60;;;3.40;97.30;;;;;;5075242;28;20171;-85
2022/11/14 05:02:49;;;;;;;11.13;6.77;;;3.40;97.30;;;;;;5057335;28;20413;-85
2022/11/14 05:05:15;;;;;;;7.83;4.30;;;3.40;97.30;;;;;;5057105;28;20929;-85
2022/11/14 05:07:41;;;;;;;9.97;5.23;;;3.30;97.30;;;;;;5057523;28;20183;-85
2022/11/14 05:10:07;;;;;;;8.20;5.53;;;3.30;97.30;;;;;;5057554;28;20405;-85
2022/11/14 05:12:33;;;;;;;7.20;6.10;;;3.30;97.30;;;;;;5057000;28;20179;-85
2022/11/14 05:14:59;;;;;;;8.90;6.67;;;3.40;97.30;;;;;;5057415;28;20962;-85
2022/11/14 05:17:24;;;;;;;9.50;4.10;;;3.40;97.30;;;;;;5039406;28;20179;-86
2022/11/14 05:19:50;;;;;;;5.27;3.63;;;3.40;97.30;;;;;;5036921;28;20190;-85
2022/11/14 05:22:16;;;;;;;7.20;3.50;;;3.40;97.30;;;;;;5036684;28;20183;-85
2022/11/14 05:24:41;;;;;;;9.67;5.80;;;3.30;97.30;;;;;;5036953;28;20206;-84
2022/11/14 05:27:07;;;;;;;11.20;4.30;;;3.30;97.30;;;;;;5037394;28;20651;-86
2022/11/14 05:29:32;;;;;;;7.27;6.57;;;3.40;97.30;;;;;;5036957;28;20262;-87
2022/11/14 05:31:59;;;;;;;10.70;5.43;;;3.50;97.30;;;;;;5037491;28;20191;-84
2022/11/14 05:34:25;;;;;;;9.00;6.20;;;3.60;97.30;;;;;;5055236;28;20234;-84
2022/11/14 05:36:50;;;;;;;5.93;3.90;;;3.70;97.30;;;;;;5037342;28;20422;-84
2022/11/14 05:39:16;;;;;;;11.97;5.70;;;3.80;97.30;;;;;;5055560;28;20686;-84
2022/11/14 05:41:41;;;;;;;4.33;4.07;;;3.90;97.30;;;;;;5037309;28;20627;-84
2022/11/14 05:44:07;;;;;;;7.80;5.53;;;3.90;97.30;;;;;;5036685;28;20180;-84
2022/11/14 05:46:33;;;;;;;7.37;4.30;;;3.90;97.30;;;;;;5054369;28;20582;-84
2022/11/14 05:48:58;;;;;;;8.83;6.47;;;3.90;97.30;;;;;;5049652;28;20224;-84
2022/11/14 05:51:24;;;;;;;4.57;4.27;;;3.90;97.30;;;;;;5055502;28;20198;-85
2022/11/14 05:53:49;;;;;;;8.00;4.50;;;3.90;97.30;;;;;;5055653;28;20230;-85
2022/11/14 05:56:15;;;;;;;11.63;7.33;;;3.90;97.30;;;;;;5055802;28;20198;-84
2022/11/14 05:58:41;;;;;;;9.20;5.47;;;3.90;97.30;;;;;;5074352;28;20180;-81
2022/11/14 06:01:16;;;;;;;5.07;4.77;;;3.90;97.30;;;;;;5061182;28;20612;-84
2022/11/14 06:03:46;;;;;;;6.37;4.33;;;3.90;97.30;;;;;;5043716;28;20713;-85
2022/11/14 06:06:17;;;;;;;7.80;5.90;;;3.80;97.30;;;;;;5055243;28;21021;-84
2022/11/14 06:08:43;;;;;;;11.53;7.90;;;3.80;97.30;;;;;;5073692;28;20432;-84
2022/11/14 06:11:11;;;;;;;18.43;6.77;;;3.80;97.30;;;;;;5054735;28;20422;-84
2022/11/14 06:13:37;;;;;;;7.43;4.50;;;3.80;97.30;;;;;;5074111;28;20341;-85
2022/11/14 06:16:06;;;;;;;6.57;4.03;;;3.80;97.30;;;;;;5055982;28;21015;-84
2022/11/14 06:18:33;;;;;;;5.73;3.53;;;3.70;97.30;;;;;;5055803;28;20481;-85
2022/11/14 06:21:00;;;;;;;9.10;4.57;;;3.70;97.30;;;;;;5055618;28;20401;-84
2022/11/14 06:23:26;;;;;;;4.03;2.27;;;3.70;97.30;;;;;;5073693;28;20417;-84
2022/11/14 06:26:00;;;;;;;8.07;5.50;;;3.70;97.30;;;;;;5056263;28;20452;-83
2022/11/14 06:28:26;;;;;;;13.00;5.60;;;3.60;97.30;;;;;;5055872;28;20428;-85
2022/11/14 06:31:04;;;;;;;5.50;4.00;;;3.60;97.30;;;;;;5055602;28;20425;-84
2022/11/14 06:33:35;;;;;;;3.90;3.70;;;3.60;97.30;;;;;;5056018;28;20478;-85
2022/11/14 06:36:03;;;;;;;4.00;3.70;;;3.60;97.30;;;;;;5054881;28;20429;-85
2022/11/14 06:38:30;;;;;;;14.03;6.10;;;3.50;97.30;;;;;;5066393;28;20449;-84
2022/11/14 06:41:07;;;;;;;4.70;4.33;;;3.50;97.30;;;;;;5073621;28;20463;-84
2022/11/14 06:43:34;;;;;;;5.97;4.20;;;3.50;97.30;;;;;;5063874;28;20401;-87
2022/11/14 06:46:00;;;;;;;6.23;5.90;;;3.50;97.30;;;;;;5079730;28;20547;-87
2022/11/14 06:48:25;;;;;;;9.43;4.03;;;3.40;97.30;;;;;;5077927;28;20422;-85
2022/11/14 06:50:52;;;;;;;10.13;5.30;;;3.40;97.30;;;;;;5059317;28;20572;-84
2022/11/14 06:53:18;;;;;;;7.17;4.27;;;3.40;97.30;;;;;;5055059;28;20210;-84
2022/11/14 06:56:02;;;;;;;12.07;5.90;;;3.40;97.30;;;;;;5055406;28;20515;-84
2022/11/14 06:58:37;;;;;;;6.87;3.10;;;3.40;97.30;;;;;;5055173;28;20417;-84
2022/11/14 07:01:14;;;;;;;6.80;5.00;;;3.40;97.30;;;;;;5054277;28;20431;-84
2022/11/14 07:03:40;;;;;;;9.33;5.57;;;3.50;97.30;;;;;;5054940;28;20443;-85
2022/11/14 07:06:07;;;;;;;3.93;3.70;;;3.50;97.30;;;;;;5054612;28;20461;-84
2022/11/14 07:08:33;;;;;;;3.33;2.93;;;3.60;97.30;;;;;;5054624;28;20452;-86
2022/11/14 07:11:07;;;;;;;6.63;3.77;;;3.60;97.30;;;;;;5073022;28;20413;-84
2022/11/14 07:13:33;;;;;;;12.50;6.10;;;3.70;97.30;;;;;;5055333;28;20964;-83
2022/11/14 07:15:59;;;;;;;7.33;4.80;;;3.80;97.30;;;;;;5055143;28;20434;-84
2022/11/14 07:18:25;;;;;;;9.20;4.50;;;3.90;97.30;;;;;;5055642;28;20796;-84
2022/11/14 07:20:57;;;;;;;5.03;3.67;;;4.00;97.30;;;;;;5055067;28;20417;-84
2022/11/14 07:23:22;;;;;;;12.00;5.40;;;4.10;97.30;;;;;;5055806;28;20210;-85
2022/11/14 07:25:48;;;;;;;8.73;5.07;;;4.10;97.30;;;;;;5056388;28;20447;-82
2022/11/14 07:28:13;;;;;;;8.60;5.67;;;4.20;97.30;;;;;;5058656;28;20610;-82
2022/11/14 07:30:40;;;;;;;5.47;2.80;;;4.30;97.30;;;;;;5075747;28;20187;-84
2022/11/14 07:33:06;;;;;;;7.83;5.53;;;4.40;97.30;;;;;;5075755;28;20216;-80
2022/11/14 07:35:31;;;;;;;5.90;3.93;;;4.40;97.30;;;;;;5058540;28;20437;-83
2022/11/14 07:38:01;;;;;;;5.87;5.57;;;4.50;97.30;;;;;;5075733;28;20198;-81
2022/11/14 07:40:27;;;;;;;5.97;4.10;;;4.60;97.30;;;;;;5058312;28;20175;-80
2022/11/14 07:42:57;;;;;;;6.60;4.10;;;4.70;97.30;;;;;;5057592;28;20413;-83
2022/11/14 07:45:23;;;;;;;12.80;5.80;;;4.80;97.30;;;;;;5057328;28;20561;-82
2022/11/14 07:47:48;;;;;;;13.13;8.70;;;4.80;97.30;;;;;;5052375;28;20436;-83
2022/11/14 07:50:14;;;;;;;8.50;4.43;;;4.90;97.30;;;;;;5056589;28;20179;-84
2022/11/14 07:52:41;;;;;;;17.43;9.17;;;5.00;97.30;;;;;;5057037;28;20768;-84
2022/11/14 07:55:07;;;;;;;5.93;3.83;;;5.10;97.30;;;;;;5055879;28;20195;-85
2022/11/14 07:57:32;;;;;;;17.77;8.13;;;5.20;97.30;;;;;;5055317;28;20417;-85
2022/11/14 07:59:58;;;;;;;8.80;5.80;;;5.30;97.30;;;;;;5073119;28;20409;-84
2022/11/14 08:02:26;;;;;;;8.83;7.77;;;5.40;97.30;;;;;;5056572;28;20187;-84
2022/11/14 08:04:51;;;;;;;9.33;4.13;;;5.50;97.30;;;;;;5055651;28;20203;-85
2022/11/14 08:07:17;;;;;;;10.60;4.83;;;5.60;97.30;;;;;;5075389;28;20409;-84
2022/11/14 08:09:43;;;;;;;8.23;4.83;;;5.70;97.30;;;;;;5053658;28;20536;-87
2022/11/14 08:12:09;;;;;;;10.87;5.87;;;5.80;97.30;;;;;;5072665;28;20413;-86
2022/11/14 08:14:34;;;;;;;10.13;6.90;;;5.90;97.30;;;;;;5050709;28;20691;-87
2022/11/14 08:17:00;;;;;;;11.13;6.70;;;6.00;97.30;;;;;;5048558;28;20175;-85
2022/11/14 08:19:25;;;;;;;6.20;4.03;;;6.10;97.30;;;;;;5054304;28;20593;-88
2022/11/14 08:21:51;;;;;;;19.73;7.93;;;6.20;97.30;;;;;;5055696;28;20225;-82
2022/11/14 08:24:16;;;;;;;11.73;6.17;;;6.30;97.30;;;;;;5074229;28;20178;-83
2022/11/14 08:26:42;;;;;;;7.57;4.17;;;6.40;97.30;;;;;;5056375;28;20202;-83
2022/11/14 08:29:16;;;;;;;8.93;7.07;;;6.50;97.30;;;;;;5074828;28;20179;-84
2022/11/14 08:31:45;;;;;;;8.70;7.73;;;6.70;97.30;;;;;;5057384;28;20409;-84
2022/11/14 08:34:13;;;;;;;12.10;5.70;;;6.80;97.30;;;;;;5049506;28;20489;-83
2022/11/14 08:36:47;;;;;;;10.10;5.43;;;6.90;97.30;;;;;;5045948;28;20436;-83
2022/11/14 08:39:16;;;;;;;7.10;5.17;;;7.00;97.30;;;;;;5057015;28;20420;-83
2022/11/14 08:41:55;;;;;;;12.20;7.80;;;7.10;97.30;;;;;;5064968;28;20424;-85
2022/11/14 08:44:33;;;;;;;13.93;7.90;;;7.20;97.30;;;;;;5066699;28;20425;-82
2022/11/14 08:47:10;;;;;;;17.00;5.40;;;7.30;97.30;;;;;;5064259;28;20432;-82
2022/11/14 08:50:10;;;;;;;10.90;6.60;;;7.30;97.30;;;;;;5062755;28;20504;-83
2022/11/14 08:52:47;;;;;;;7.80;5.70;;;7.50;97.30;;;;;;5063035;28;20421;-84
2022/11/14 08:55:13;;;;;;;13.60;8.10;;;7.60;97.30;;;;;;5053004;28;20456;-86
2022/11/14 08:57:39;;;;;;;6.13;4.57;;;7.70;97.30;;;;;;5052294;28;20406;-87
2022/11/14 09:00:05;;;;;;;8.33;5.80;;;7.80;97.30;;;;;;5051912;28;20583;-86
2022/11/14 09:02:30;;;;;;;6.77;4.53;;;7.80;97.30;;;;;;5052745;28;20172;-86
2022/11/14 09:04:56;;;;;;;11.60;6.60;;;7.90;97.30;;;;;;5074143;28;20464;-86
2022/11/14 09:07:21;;;;;;;9.23;5.93;;;8.00;97.30;;;;;;5071955;28;20207;-87
2022/11/14 09:09:47;;;;;;;7.50;4.83;;;8.10;97.30;;;;;;5073094;28;20312;-86
2022/11/14 09:12:13;;;;;;;17.17;9.70;;;8.30;97.30;;;;;;5073867;28;20657;-87
2022/11/14 09:14:38;;;;;;;9.87;4.10;;;8.40;97.30;;;;;;5071516;28;20249;-86
2022/11/14 09:17:04;;;;;;;7.13;4.40;;;8.40;97.30;;;;;;5072159;28;20484;-86
2022/11/14 09:19:29;;;;;;;13.27;7.90;;;8.50;97.30;;;;;;5072401;28;20258;-86
2022/11/14 09:21:55;;;;;;;11.60;6.13;;;8.60;97.30;;;;;;5056086;28;20275;-86
2022/11/14 09:24:22;;;;;;;7.73;5.50;;;8.70;97.30;;;;;;5068558;28;20179;-85
2022/11/14 09:26:56;;;;;;;17.50;6.47;;;8.80;97.30;;;;;;5056736;28;20179;-82
2022/11/14 09:29:37;;;;;;;11.70;7.57;;;8.80;97.30;;;;;;5060667;28;20452;-85
2022/11/14 09:32:37;;;;;;;11.07;7.23;;;8.90;97.30;;;;;;5055735;28;20500;-86
2022/11/14 09:35:27;;;;;;;6.33;4.23;;;9.00;97.30;;;;;;5052424;28;20466;-86
2022/11/14 09:38:27;;;;;;;12.40;6.50;;;9.10;97.30;;;;;;5038379;28;20418;-85
2022/11/14 09:41:56;;;;;;;8.93;6.30;;;9.20;97.30;;;;;;5056085;28;20411;-87
2022/11/14 09:44:57;;;;;;;12.90;4.50;;;9.30;97.30;;;;;;4946125;28;20465;-87
2022/11/14 09:48:26;;;;;;;20.13;7.20;;;9.40;97.30;;;;;;5036480;28;20413;-86
2022/11/14 09:51:26;;;;;;;5.47;5.17;;;9.60;97.30;;;;;;5038437;28;20422;-85
2022/11/14 09:54:37;;;;;;;9.40;4.37;;;9.70;97.30;;;;;;5052408;28;20474;-83
2022/11/14 09:57:26;;;;;;;7.20;6.20;;;9.80;97.30;;;;;;5071115;28;20448;-86
2022/11/14 10:00:16;;;;;;;6.03;5.00;;;9.90;97.30;;;;;;5020797;28;20429;-86
2022/11/14 10:03:04;;;;;;;6.83;4.63;;;10.00;97.30;;;;;;5046251;28;20441;-85
2022/11/14 10:06:06;;;;;;;10.50;7.73;;;10.10;97.30;;;;;;5084741;22;20477;-87
2022/11/14 10:09:15;;;;;;;5.73;4.13;;;10.20;97.30;;;;;;5085213;28;20432;-84
2022/11/14 10:11:48;;;;;;;13.67;6.13;;;10.30;97.30;;;;;;5072038;28;20750;-84
2022/11/14 10:14:22;;;;;;;12.80;5.67;;;10.40;97.30;;;;;;5072981;28;20452;-84
2022/11/14 10:17:13;;;;;;;13.13;6.53;;;10.50;97.30;;;;;;5071395;28;20460;-84
2022/11/14 10:20:02;;;;;;;4.80;4.23;;;10.60;97.30;;;;;;5071450;28;20410;-85
2022/11/14 10:22:58;;;;;;;7.67;3.77;;;10.80;97.30;;;;;;5070909;28;20406;-84
2022/11/14 10:25:39;;;;;;;4.60;3.20;;;10.80;97.30;;;;;;5070879;28;20428;-85
2022/11/14 10:28:19;;;;;;;8.30;4.67;;;10.90;97.30;;;;;;5071876;28;20841;-85
2022/11/14 10:30:56;;;;;;;5.83;3.83;;;11.00;97.30;;;;;;5071380;28;20495;-85
2022/11/14 10:33:33;;;;;;;13.80;6.47;;;11.10;97.30;;;;;;5071264;28;20452;-84
2022/11/14 10:36:07;;;;;;;8.23;4.60;;;11.20;97.30;;;;;;5071988;28;20437;-84
2022/11/14 10:39:23;;;;;;;9.30;6.43;;;11.40;97.30;;;;;;5071728;28;20416;-83
2022/11/14 10:41:54;;;;;;;5.80;3.83;;;11.50;97.30;;;;;;5065588;28;20508;-85
2022/11/14 10:44:25;;;;;;;9.03;5.97;;;11.60;97.30;;;;;;5071177;28;20409;-84
2022/11/14 10:46:57;;;;;;;10.67;7.00;;;11.70;97.30;;;;;;5071272;28;20484;-85
2022/11/14 10:49:25;;;;;;;8.57;6.50;;;11.80;97.30;;;;;;5072229;28;20410;-85
2022/11/14 10:51:55;;;;;;;27.80;7.07;;;11.90;97.30;;;;;;5071960;28;20789;-84
2022/11/14 10:54:31;;;;;;;12.03;7.17;;;12.00;97.30;;;;;;5070863;28;20540;-83
2022/11/14 10:56:56;;;;;;;6.80;4.30;;;12.10;97.30;;;;;;5070213;28;20796;-84
2022/11/14 10:59:22;;;;;;;10.00;5.70;;;12.20;97.30;;;;;;5070535;28;20410;-84
2022/11/14 11:01:53;;;;;;;7.00;5.07;;;12.30;97.30;;;;;;5071029;28;20678;-84
2022/11/14 11:04:31;;;;;;;6.90;4.27;;;12.40;97.30;;;;;;5072060;28;20182;-84
2022/11/14 11:13:11;;;;;;;12.60;7.50;;;12.70;97.30;;;;;;5071924;28;20538;-84
2022/11/14 11:15:41;;;;;;;4.27;3.10;;;12.80;97.30;;;;;;5067398;28;20509;-84
2022/11/14 11:18:34;;;;;;;12.30;5.07;;;12.90;97.30;;;;;;5050743;28;20548;-84
2022/11/14 11:21:26;;;;;;;3.57;3.37;;;13.00;97.30;;;;;;5043848;28;20933;-85
2022/11/14 11:23:56;;;;;;;6.97;5.20;;;13.20;97.30;;;;;;5047711;28;20420;-84
2022/11/14 11:26:31;;;;;;;16.53;5.23;;;13.30;97.30;;;;;;5050365;28;20858;-84
2022/11/14 11:29:08;;;;;;;7.17;4.73;;;13.40;97.30;;;;;;5050408;28;20555;-83
2022/11/14 11:31:51;;;;;;;7.03;3.90;;;13.50;97.30;;;;;;5050217;28;20430;-84
2022/11/14 11:34:31;;;;;;;7.30;4.33;;;13.50;96.50;;;;;;5049930;28;20461;-84
2022/11/14 11:37:16;;;;;;;8.10;4.03;;;13.60;96.40;;;;;;5050288;28;20724;-84
2022/11/14 11:39:49;;;;;;;4.30;2.93;;;13.70;96.50;;;;;;5050127;28;20608;-84
2022/11/14 11:42:20;;;;;;;6.20;3.93;;;13.80;96.50;;;;;;5049810;28;20421;-84
2022/11/14 11:44:50;;;;;;;7.53;4.90;;;13.90;95.70;;;;;;5049967;28;20414;-85
2022/11/14 11:47:17;;;;;;;6.03;4.40;;;14.00;95.90;;;;;;5033162;28;20438;-83
2022/11/14 11:49:46;;;;;;;6.13;3.07;;;14.20;94.60;;;;;;5050250;28;20553;-85
2022/11/14 11:52:38;;;;;;;5.60;4.00;;;14.20;94.20;;;;;;5049915;28;20418;-84
2022/11/14 11:55:27;;;;;;;5.53;4.67;;;14.20;93.70;;;;;;5049530;28;21010;-84
2022/11/14 11:58:21;;;;;;;12.13;5.60;;;14.30;94.50;;;;;;5049873;28;20411;-85
2022/11/14 12:00:49;;;;;;;7.30;4.33;;;14.40;94.60;;;;;;5050853;28;20410;-84
2022/11/14 12:03:15;;;;;;;4.90;3.83;;;14.50;93.30;;;;;;5049698;28;20695;-84
2022/11/14 12:05:51;;;;;;;5.07;3.97;;;14.60;93.80;;;;;;5049317;28;20439;-84
2022/11/14 12:08:23;;;;;;;6.43;3.77;;;14.70;93.20;;;;;;5049047;28;20742;-84
2022/11/14 12:10:49;;;;;;;6.90;5.17;;;14.80;93.30;;;;;;5049743;28;20521;-84
2022/11/14 12:13:45;;;;;;;10.97;5.07;;;14.90;93.10;;;;;;5049959;28;20469;-84
2022/11/14 12:16:45;;;;;;;5.80;3.10;;;15.00;93.00;;;;;;5058076;28;20487;-84
2022/11/14 12:19:22;;;;;;;6.80;5.10;;;15.00;91.80;;;;;;5069676;28;20410;-84
2022/11/14 12:21:59;;;;;;;10.10;5.27;;;15.10;92.20;;;;;;5070640;28;20401;-84
2022/11/14 12:25:00;;;;;;;6.20;4.67;;;15.10;92.30;;;;;;5069369;28;20502;-84
2022/11/14 12:27:57;;;;;;;6.73;4.50;;;15.30;91.80;;;;;;5069578;28;21059;-85
2022/11/14 12:30:25;;;;;;;5.97;3.67;;;15.30;91.50;;;;;;5000079;28;20416;-84
2022/11/14 12:33:03;;;;;;;5.43;3.30;;;15.30;91.50;;;;;;5069491;28;20402;-84
2022/11/14 12:35:34;;;;;;;3.90;3.70;;;15.40;91.30;;;;;;5069230;28;20438;-84
2022/11/14 12:38:03;;;;;;;3.80;2.97;;;15.40;90.90;;;;;;5070611;28;20462;-83
2022/11/14 12:40:33;;;;;;;4.47;4.17;;;15.50;91.00;;;;;;5069112;28;20451;-84
2022/11/14 12:43:00;;;;;;;10.03;4.50;;;15.60;91.20;;;;;;5069515;28;20972;-84
2022/11/14 12:45:41;;;;;;;6.90;4.70;;;15.60;90.60;;;;;;5070492;28;20439;-83
2022/11/14 12:48:29;;;;;;;3.33;2.53;;;15.70;90.20;;;;;;5069728;28;20829;-83
2022/11/14 12:50:57;;;;;;;7.03;2.40;;;15.70;90.00;;;;;;5069191;28;20952;-84
2022/11/14 12:53:37;;;;;;;6.60;5.00;;;15.80;90.00;;;;;;5070396;28;20452;-84
2022/11/14 12:56:21;;;;;;;7.80;3.07;;;15.90;90.20;;;;;;5069205;28;20947;-83
2022/11/14 12:58:47;;;;;;;10.07;5.70;;;16.10;89.70;;;;;;5069699;28;20405;-84
2022/11/14 13:01:34;;;;;;;6.50;3.60;;;16.10;89.20;;;;;;5069456;28;20404;-83
2022/11/14 13:04:02;;;;;;;5.47;3.20;;;16.20;88.90;;;;;;5070680;28;20217;-83
2022/11/14 13:06:50;;;;;;;5.63;4.17;;;16.10;88.00;;;;;;5068810;28;20469;-84
2022/11/14 13:09:49;;;;;;;5.60;3.37;;;16.10;88.40;;;;;;5069271;28;20422;-83
2022/11/14 13:23:59;;;;;;;11.13;3.10;;;16.30;87.60;;;;;;5054091;28;20460;-83
2022/11/14 13:26:24;;;;;;;4.50;3.60;;;16.30;87.80;;;;;;5053496;28;20429;-84
2022/11/14 13:28:51;;;;;;;7.70;3.67;;;16.20;87.60;;;;;;5052549;28;20414;-85